Time;durP1;ratioP1;P1;durP2;ratioP2;P2;SDS_P1;SDS_P2;PMS_P1;PMS_P2;Temp;Humidity;BMP_temperature;BMP_pressure;BME280_temperature;BME280_humidity;BME280_pressure;Samples;Min_cycle;Max_cycle;Signal;HPM_P1;HPM_P2
2023/08/29 00:01:14;;;;;;;3.78;3.03;;;18.60;99.90;;;;;;5072843;28;20182;-80
2023/08/29 00:03:45;;;;;;;3.88;2.50;;;18.70;99.90;;;;;;5072790;28;20203;-79
2023/08/29 00:06:16;;;;;;;3.95;2.38;;;18.80;99.90;;;;;;5072931;28;20534;-79
2023/08/29 00:08:47;;;;;;;4.90;2.60;;;19.00;99.90;;;;;;5072967;28;20196;-79
2023/08/29 00:11:18;;;;;;;4.18;2.55;;;19.20;99.90;;;;;;5079532;28;20200;-76
2023/08/29 00:13:49;;;;;;;4.45;2.70;;;19.30;99.90;;;;;;5086044;28;20224;-76
2023/08/29 00:16:22;;;;;;;5.40;2.40;;;19.50;99.90;;;;;;5076798;28;20185;-78
2023/08/29 00:18:53;;;;;;;3.10;2.42;;;19.30;99.90;;;;;;5076380;28;20219;-76
2023/08/29 00:21:23;;;;;;;2.83;2.20;;;19.30;99.90;;;;;;5076845;28;20549;-77
2023/08/29 00:23:54;;;;;;;8.10;2.80;;;19.30;99.90;;;;;;5076634;28;20193;-78
2023/08/29 00:26:25;;;;;;;4.20;2.50;;;19.30;99.90;;;;;;5077150;28;20191;-76
2023/08/29 00:28:56;;;;;;;3.10;2.20;;;19.20;99.90;;;;;;5076543;28;20204;-78
2023/08/29 00:31:28;;;;;;;2.85;2.03;;;19.10;99.90;;;;;;5083204;28;20196;-77
2023/08/29 00:33:59;;;;;;;5.07;2.50;;;19.30;99.90;;;;;;5076443;28;20696;-79
2023/08/29 00:36:30;;;;;;;4.70;2.53;;;19.50;99.90;;;;;;5076552;28;20216;-76
2023/08/29 00:39:01;;;;;;;4.45;2.28;;;19.40;99.90;;;;;;5076419;28;20296;-77
2023/08/29 00:41:32;;;;;;;3.22;1.95;;;19.40;99.90;;;;;;5076397;28;20258;-76
2023/08/29 00:44:03;;;;;;;3.15;2.00;;;19.30;99.90;;;;;;5076343;28;20258;-76
2023/08/29 00:46:36;;;;;;;5.07;2.08;;;19.20;99.90;;;;;;5075813;28;20200;-76
2023/08/29 00:49:06;;;;;;;7.32;2.50;;;19.20;99.90;;;;;;5084663;28;20533;-76
2023/08/29 00:51:37;;;;;;;4.65;1.90;;;19.40;99.90;;;;;;5076186;28;20195;-76
2023/08/29 00:54:08;;;;;;;7.93;2.72;;;19.70;99.90;;;;;;5076160;28;20216;-77
2023/08/29 00:56:39;;;;;;;3.53;1.92;;;19.90;99.90;;;;;;5076316;28;20189;-77
2023/08/29 00:59:11;;;;;;;3.53;1.90;;;20.00;99.90;;;;;;5076162;28;20193;-76
2023/08/29 01:01:45;;;;;;;4.05;2.20;;;20.20;99.90;;;;;;5075745;28;20231;-76
2023/08/29 01:04:15;;;;;;;4.30;2.10;;;20.40;99.90;;;;;;5076212;28;20190;-77
2023/08/29 01:06:46;;;;;;;5.07;2.42;;;20.50;99.90;;;;;;5075932;28;20223;-76
2023/08/29 01:09:18;;;;;;;4.60;2.10;;;20.60;99.90;;;;;;5076031;28;20193;-77
2023/08/29 01:11:54;;;;;;;4.63;2.15;;;20.80;99.90;;;;;;5075962;28;20239;-76
2023/08/29 01:14:33;;;;;;;2.58;1.80;;;20.90;99.90;;;;;;5075833;28;20228;-77
2023/08/29 01:17:09;;;;;;;3.90;1.63;;;21.00;99.90;;;;;;5076012;28;20191;-76
2023/08/29 01:19:43;;;;;;;3.88;1.23;;;21.10;99.90;;;;;;5075373;28;20215;-76
2023/08/29 01:22:29;;;;;;;3.65;2.60;;;21.20;99.90;;;;;;5075953;28;20648;-76
2023/08/29 01:25:08;;;;;;;2.17;1.40;;;21.40;99.90;;;;;;5075662;28;20196;-77
2023/08/29 01:27:41;;;;;;;2.60;1.30;;;21.50;99.90;;;;;;5079027;28;20687;-77
2023/08/29 01:30:13;;;;;;;2.75;1.40;;;21.60;99.90;;;;;;5087887;28;20299;-77
2023/08/29 01:32:44;;;;;;;1.85;1.25;;;21.60;99.90;;;;;;5095537;28;20737;-76
2023/08/29 01:35:17;;;;;;;1.83;1.27;;;21.70;99.90;;;;;;5086186;28;20216;-76
2023/08/29 01:37:48;;;;;;;2.25;1.40;;;21.70;99.90;;;;;;5080306;28;20229;-76
2023/08/29 01:40:18;;;;;;;2.20;1.30;;;21.70;99.90;;;;;;5080997;28;20215;-77
2023/08/29 01:42:51;;;;;;;2.92;1.33;;;21.80;99.90;;;;;;5089877;28;20202;-76
2023/08/29 01:45:22;;;;;;;2.72;1.40;;;21.90;99.90;;;;;;5080738;28;20190;-76
2023/08/29 01:47:53;;;;;;;2.00;1.20;;;22.00;99.90;;;;;;5095500;28;20195;-75
2023/08/29 01:50:24;;;;;;;1.35;1.00;;;22.00;99.90;;;;;;5094369;28;20188;-76
2023/08/29 01:52:56;;;;;;;1.88;1.42;;;22.10;99.90;;;;;;5091632;28;20211;-77
2023/08/29 01:55:28;;;;;;;2.85;1.10;;;22.20;99.90;;;;;;5075738;28;20287;-76
2023/08/29 01:58:01;;;;;;;2.55;1.10;;;22.30;99.90;;;;;;5075043;28;20189;-75
2023/08/29 02:00:33;;;;;;;1.42;0.98;;;22.40;99.90;;;;;;5076156;28;20197;-77
2023/08/29 02:03:04;;;;;;;1.38;1.00;;;22.50;99.90;;;;;;5076057;28;20551;-78
2023/08/29 02:05:35;;;;;;;1.20;1.10;;;22.60;99.90;;;;;;5074810;28;20189;-79
2023/08/29 02:08:06;;;;;;;1.30;1.00;;;22.70;99.90;;;;;;5074010;28;20279;-77
2023/08/29 02:10:37;;;;;;;1.00;0.90;;;22.80;99.90;;;;;;5093911;28;20287;-80
2023/08/29 02:13:12;;;;;;;1.48;1.27;;;22.90;99.90;;;;;;5092506;28;20251;-79
2023/08/29 02:15:43;;;;;;;3.00;1.17;;;22.70;99.90;;;;;;5074392;28;20192;-79
2023/08/29 02:18:13;;;;;;;0.95;0.95;;;22.70;99.90;;;;;;5074568;28;20193;-79
2023/08/29 02:20:44;;;;;;;2.13;1.20;;;22.80;99.90;;;;;;5074366;28;20196;-80
2023/08/29 02:23:15;;;;;;;2.85;1.02;;;22.90;99.90;;;;;;5085275;28;20208;-80
2023/08/29 02:25:48;;;;;;;2.35;1.13;;;22.90;99.90;;;;;;5094720;28;20188;-81
2023/08/29 02:28:20;;;;;;;1.40;1.00;;;22.90;99.90;;;;;;5092670;28;20185;-79
2023/08/29 02:30:51;;;;;;;2.15;1.10;;;23.00;99.90;;;;;;5093352;28;20204;-78
2023/08/29 02:33:22;;;;;;;1.10;1.00;;;23.20;99.90;;;;;;5093743;28;20224;-78
2023/08/29 02:35:52;;;;;;;2.13;1.40;;;23.30;99.90;;;;;;5094596;28;20226;-78
2023/08/29 02:38:23;;;;;;;2.92;1.30;;;23.30;99.90;;;;;;5091096;28;20192;-80
2023/08/29 02:40:54;;;;;;;2.20;1.00;;;23.30;99.90;;;;;;5093233;28;20248;-79
2023/08/29 02:43:27;;;;;;;2.85;1.00;;;23.20;99.90;;;;;;5081171;28;20276;-79
2023/08/29 02:45:58;;;;;;;1.27;1.10;;;23.20;99.90;;;;;;5088337;28;20191;-79
2023/08/29 02:48:29;;;;;;;2.80;1.23;;;23.30;99.90;;;;;;5074449;28;20193;-81
2023/08/29 02:51:00;;;;;;;1.63;1.30;;;23.30;99.90;;;;;;5076353;28;20553;-78
2023/08/29 02:53:30;;;;;;;5.10;1.65;;;23.30;99.90;;;;;;5074898;28;20220;-79
2023/08/29 02:56:01;;;;;;;3.13;1.50;;;23.30;99.90;;;;;;5079310;28;20181;-78
2023/08/29 02:58:34;;;;;;;3.03;1.60;;;23.30;99.90;;;;;;5087165;28;20196;-80
2023/08/29 03:01:09;;;;;;;2.63;1.63;;;23.30;99.90;;;;;;5089242;28;20553;-77
2023/08/29 03:03:40;;;;;;;3.63;1.60;;;23.00;99.90;;;;;;5075582;28;20204;-77
2023/08/29 03:06:11;;;;;;;3.42;1.50;;;23.00;99.90;;;;;;5073765;28;20189;-80
2023/08/29 03:08:42;;;;;;;4.68;1.80;;;22.80;99.90;;;;;;5081253;28;20640;-78
2023/08/29 03:11:12;;;;;;;2.58;1.65;;;22.70;99.90;;;;;;5087723;28;20196;-80
2023/08/29 03:13:45;;;;;;;4.28;1.63;;;22.60;99.90;;;;;;5063128;28;20214;-80
2023/08/29 03:16:16;;;;;;;3.95;1.90;;;22.50;99.90;;;;;;5072087;28;20280;-79
2023/08/29 03:18:47;;;;;;;4.32;1.80;;;22.50;99.90;;;;;;5071156;28;20638;-78
2023/08/29 03:21:18;;;;;;;6.78;1.90;;;22.40;99.90;;;;;;5058708;28;20199;-79
2023/08/29 03:23:49;;;;;;;4.78;1.90;;;22.50;99.90;;;;;;5053417;28;20591;-79
2023/08/29 03:26:20;;;;;;;7.13;2.00;;;22.60;99.90;;;;;;5054255;28;20200;-78
2023/08/29 03:28:52;;;;;;;3.78;1.77;;;22.60;99.90;;;;;;5062065;28;20188;-80
2023/08/29 03:31:23;;;;;;;4.50;2.08;;;22.60;99.90;;;;;;5072577;28;20202;-80
2023/08/29 03:33:54;;;;;;;5.05;2.28;;;22.50;99.90;;;;;;5071945;28;20228;-78
2023/08/29 03:36:25;;;;;;;3.55;1.80;;;22.40;99.90;;;;;;5073385;28;20193;-80
2023/08/29 03:38:55;;;;;;;2.97;1.73;;;22.30;99.90;;;;;;5056034;28;20284;-78
2023/08/29 03:41:26;;;;;;;4.22;2.00;;;22.30;99.90;;;;;;5055692;28;20185;-77
2023/08/29 03:43:59;;;;;;;4.13;1.95;;;22.20;99.90;;;;;;5052858;28;20202;-82
2023/08/29 03:46:29;;;;;;;3.90;1.90;;;22.10;99.90;;;;;;5052578;28;20645;-81
2023/08/29 03:49:00;;;;;;;6.13;2.15;;;22.00;99.90;;;;;;5062975;28;20223;-78
2023/08/29 03:51:31;;;;;;;8.65;2.00;;;22.00;99.90;;;;;;5073021;28;20189;-78
2023/08/29 03:54:02;;;;;;;3.85;2.10;;;22.10;99.90;;;;;;5072401;28;20394;-80
2023/08/29 03:56:33;;;;;;;4.10;2.33;;;22.20;99.90;;;;;;5066444;28;20221;-80
2023/08/29 03:59:06;;;;;;;3.15;2.10;;;22.30;99.90;;;;;;5052079;28;20189;-80
2023/08/29 04:01:37;;;;;;;5.90;1.90;;;22.40;99.90;;;;;;5051862;28;20598;-80
2023/08/29 04:04:08;;;;;;;4.70;2.10;;;22.30;99.90;;;;;;5051482;28;20572;-80
2023/08/29 04:06:39;;;;;;;5.25;1.70;;;22.10;99.90;;;;;;5051920;28;20206;-77
2023/08/29 04:09:12;;;;;;;5.32;2.10;;;22.10;99.90;;;;;;5051293;28;20555;-77
2023/08/29 04:11:43;;;;;;;5.25;2.10;;;22.10;99.90;;;;;;5063872;28;20232;-81
2023/08/29 04:14:16;;;;;;;7.90;2.75;;;22.00;99.90;;;;;;5081768;28;20223;-77
2023/08/29 04:16:47;;;;;;;5.53;2.00;;;21.90;99.90;;;;;;5088569;28;20551;-75
2023/08/29 04:19:18;;;;;;;4.60;1.65;;;21.90;99.90;;;;;;5084481;28;20223;-76
2023/08/29 04:21:49;;;;;;;4.28;1.95;;;21.90;99.90;;;;;;5072747;28;20560;-74
2023/08/29 04:24:20;;;;;;;3.45;2.10;;;21.90;99.90;;;;;;5072342;28;20211;-75
2023/08/29 04:26:51;;;;;;;5.55;2.10;;;21.90;99.90;;;;;;5072896;28;20637;-74
2023/08/29 04:29:23;;;;;;;4.38;1.83;;;22.00;99.90;;;;;;5083027;28;20199;-83
2023/08/29 04:31:54;;;;;;;3.60;1.75;;;22.00;99.90;;;;;;5092896;28;20185;-81
2023/08/29 04:34:25;;;;;;;4.25;1.65;;;21.90;99.90;;;;;;5072277;28;20229;-82
2023/08/29 04:36:56;;;;;;;3.95;1.83;;;21.90;99.90;;;;;;5072787;28;20189;-78
2023/08/29 04:39:27;;;;;;;3.20;1.70;;;22.00;99.90;;;;;;5076194;28;20193;-80
2023/08/29 04:41:58;;;;;;;6.82;2.00;;;21.90;99.90;;;;;;5089546;28;20221;-80
2023/08/29 04:44:32;;;;;;;3.33;1.90;;;22.00;99.90;;;;;;5074150;28;20195;-79
2023/08/29 04:47:03;;;;;;;3.53;1.70;;;22.00;99.90;;;;;;5084666;28;20219;-81
2023/08/29 04:49:35;;;;;;;3.95;1.77;;;22.00;99.90;;;;;;5077228;28;20592;-80
2023/08/29 04:52:06;;;;;;;3.35;1.75;;;22.00;99.90;;;;;;5092603;28;20216;-77
2023/08/29 04:54:36;;;;;;;3.38;1.75;;;22.00;99.90;;;;;;5083086;28;20217;-78
2023/08/29 04:57:07;;;;;;;3.72;1.80;;;21.80;99.90;;;;;;5075868;28;20675;-78
2023/08/29 04:59:40;;;;;;;3.72;1.90;;;21.70;99.90;;;;;;5084917;28;20561;-77
2023/08/29 05:02:11;;;;;;;4.15;2.20;;;21.60;99.90;;;;;;5096178;28;20185;-76
2023/08/29 05:04:42;;;;;;;4.32;2.08;;;21.60;99.90;;;;;;5088814;28;20195;-77
2023/08/29 05:07:13;;;;;;;4.50;1.90;;;21.60;99.90;;;;;;5075582;28;20607;-80
2023/08/29 05:09:44;;;;;;;3.35;2.10;;;21.60;99.90;;;;;;5077038;28;20664;-80
2023/08/29 05:12:14;;;;;;;3.20;1.75;;;21.60;99.90;;;;;;5075842;28;20267;-76
2023/08/29 05:14:47;;;;;;;3.97;1.88;;;21.60;99.90;;;;;;5075645;28;20231;-77
2023/08/29 05:17:18;;;;;;;3.25;1.70;;;21.50;99.90;;;;;;5075781;28;20189;-78
2023/08/29 05:19:49;;;;;;;4.25;1.75;;;21.60;99.90;;;;;;5076891;28;20186;-76
2023/08/29 05:22:20;;;;;;;5.00;2.03;;;21.50;99.90;;;;;;5075684;28;20224;-78
2023/08/29 05:24:50;;;;;;;5.05;1.83;;;21.40;99.90;;;;;;5075791;28;20208;-78
2023/08/29 05:27:21;;;;;;;4.53;2.30;;;21.30;99.90;;;;;;5076227;28;20185;-77
2023/08/29 05:29:54;;;;;;;4.18;2.00;;;21.20;99.90;;;;;;5077166;28;20227;-76
2023/08/29 05:32:25;;;;;;;4.25;1.73;;;21.10;99.90;;;;;;5075342;28;20196;-76
2023/08/29 05:34:55;;;;;;;5.38;1.80;;;21.20;99.90;;;;;;5076571;28;20676;-78
2023/08/29 05:37:26;;;;;;;3.25;1.95;;;21.20;99.90;;;;;;5076254;28;20193;-76
2023/08/29 05:39:57;;;;;;;3.75;1.70;;;21.10;99.90;;;;;;5075285;28;20195;-76
2023/08/29 05:42:28;;;;;;;5.80;1.92;;;21.10;99.90;;;;;;5093057;28;20606;-76
2023/08/29 05:45:01;;;;;;;4.90;1.70;;;21.10;99.90;;;;;;5095742;28;20192;-77
2023/08/29 05:47:32;;;;;;;3.58;2.08;;;21.00;99.90;;;;;;5089569;28;20203;-76
2023/08/29 05:50:03;;;;;;;4.82;1.90;;;20.90;99.90;;;;;;5095634;28;20211;-76
2023/08/29 05:52:33;;;;;;;3.28;1.80;;;20.90;99.90;;;;;;5094841;28;20196;-77
2023/08/29 05:55:04;;;;;;;2.63;1.73;;;20.80;99.90;;;;;;5095202;28;20220;-76
2023/08/29 05:57:35;;;;;;;4.88;2.67;;;20.80;99.90;;;;;;5093387;28;20716;-76
2023/08/29 06:00:10;;;;;;;4.63;1.92;;;20.70;99.90;;;;;;5095209;28;20241;-77
2023/08/29 06:02:41;;;;;;;4.15;1.80;;;20.80;99.90;;;;;;5095278;28;20184;-77
2023/08/29 06:05:12;;;;;;;4.20;1.90;;;20.70;99.90;;;;;;5095168;28;20272;-77
2023/08/29 06:07:43;;;;;;;3.22;1.80;;;20.70;99.90;;;;;;5093179;28;20190;-76
2023/08/29 06:10:13;;;;;;;3.17;1.75;;;20.50;99.90;;;;;;5094927;28;20188;-79
2023/08/29 06:12:44;;;;;;;3.28;1.80;;;20.60;99.90;;;;;;5095025;28;20243;-76
2023/08/29 06:15:17;;;;;;;4.57;1.85;;;20.60;99.90;;;;;;5094708;28;20223;-77
2023/08/29 06:17:48;;;;;;;4.22;1.95;;;20.60;99.90;;;;;;5093000;28;20192;-76
2023/08/29 06:20:18;;;;;;;4.53;1.70;;;20.70;99.90;;;;;;5091127;28;20191;-76
2023/08/29 06:22:49;;;;;;;4.20;2.15;;;20.70;99.90;;;;;;5074546;28;20637;-76
2023/08/29 06:25:20;;;;;;;2.63;1.92;;;20.60;99.90;;;;;;5076617;28;20188;-78
2023/08/29 06:27:51;;;;;;;4.15;2.10;;;20.60;99.90;;;;;;5074493;28;20189;-77
2023/08/29 06:30:24;;;;;;;3.95;2.03;;;20.50;99.90;;;;;;5074539;28;20228;-77
2023/08/29 06:32:54;;;;;;;4.45;2.00;;;20.50;99.90;;;;;;5075391;28;20189;-77
2023/08/29 06:35:25;;;;;;;4.13;2.28;;;20.50;99.90;;;;;;5074236;28;20220;-78
2023/08/29 06:37:56;;;;;;;4.22;1.80;;;20.50;99.90;;;;;;5087490;28;20189;-77
2023/08/29 06:40:27;;;;;;;3.30;1.98;;;20.40;99.90;;;;;;5092765;28;20184;-77
2023/08/29 06:42:58;;;;;;;4.63;2.33;;;20.40;99.90;;;;;;5081195;28;20182;-76
2023/08/29 06:45:30;;;;;;;4.50;1.90;;;20.20;99.90;;;;;;5077692;28;20185;-80
2023/08/29 06:48:01;;;;;;;3.33;1.73;;;20.20;99.90;;;;;;5077002;28;20563;-81
2023/08/29 06:50:32;;;;;;;4.00;1.80;;;20.20;99.90;;;;;;5073824;28;20653;-80
2023/08/29 06:53:03;;;;;;;4.35;2.10;;;20.10;99.90;;;;;;5091685;28;20188;-79
2023/08/29 06:55:34;;;;;;;2.35;1.90;;;20.10;99.90;;;;;;5087286;28;20755;-79
2023/08/29 06:58:06;;;;;;;6.25;2.33;;;20.00;99.90;;;;;;5093550;28;20192;-80
2023/08/29 07:00:39;;;;;;;5.90;2.20;;;19.90;99.90;;;;;;5077148;28;20193;-79
2023/08/29 07:03:09;;;;;;;5.43;2.33;;;19.80;99.90;;;;;;5088635;28;20636;-79
2023/08/29 07:05:41;;;;;;;5.18;2.45;;;19.70;99.90;;;;;;5083928;28;20188;-80
2023/08/29 07:08:12;;;;;;;5.43;2.00;;;19.70;99.90;;;;;;5075821;28;20185;-79
2023/08/29 07:10:43;;;;;;;4.22;2.20;;;19.60;99.90;;;;;;5084992;28;20187;-78
2023/08/29 07:13:13;;;;;;;4.32;2.15;;;19.60;99.90;;;;;;5084184;28;20236;-80
2023/08/29 07:15:46;;;;;;;3.47;1.95;;;19.50;99.90;;;;;;5071334;28;20221;-81
2023/08/29 07:18:17;;;;;;;5.05;2.03;;;19.40;99.90;;;;;;5078290;28;20195;-80
2023/08/29 07:20:51;;;;;;;4.05;2.05;;;19.30;99.90;;;;;;5091576;28;20191;-80
2023/08/29 07:23:22;;;;;;;4.65;2.10;;;19.20;99.90;;;;;;5090657;28;20212;-78
2023/08/29 07:25:53;;;;;;;4.82;2.05;;;19.20;99.90;;;;;;5081102;28;20184;-77
2023/08/29 07:28:24;;;;;;;4.10;2.50;;;19.10;99.90;;;;;;5091734;28;20226;-79
2023/08/29 07:30:57;;;;;;;3.15;2.28;;;19.00;99.90;;;;;;5086229;28;20193;-78
2023/08/29 07:33:29;;;;;;;5.60;2.25;;;18.90;99.90;;;;;;5091356;28;20642;-78
2023/08/29 07:36:00;;;;;;;4.97;2.10;;;18.80;99.90;;;;;;5082618;28;20224;-80
2023/08/29 07:38:31;;;;;;;3.97;2.10;;;18.80;99.90;;;;;;5080827;28;20188;-80
2023/08/29 07:41:02;;;;;;;5.10;2.10;;;18.70;99.90;;;;;;5074323;28;20192;-79
2023/08/29 07:43:33;;;;;;;4.10;2.33;;;18.80;99.90;;;;;;5075647;28;20716;-80
2023/08/29 07:46:08;;;;;;;4.82;2.10;;;18.70;99.90;;;;;;5089293;28;20572;-80
2023/08/29 07:48:39;;;;;;;5.35;2.20;;;18.60;99.90;;;;;;5085593;28;20865;-79
2023/08/29 07:51:10;;;;;;;5.07;2.10;;;18.60;99.90;;;;;;5071452;28;20267;-80
2023/08/29 07:53:41;;;;;;;3.50;2.15;;;18.60;99.90;;;;;;5088418;28;20192;-80
2023/08/29 07:56:13;;;;;;;4.95;2.38;;;18.50;99.90;;;;;;5092559;28;20212;-77
2023/08/29 07:58:43;;;;;;;4.50;2.20;;;18.50;99.90;;;;;;5088254;28;20189;-80
2023/08/29 08:01:17;;;;;;;6.60;2.63;;;18.50;99.90;;;;;;5081727;28;20192;-80
2023/08/29 08:03:48;;;;;;;4.20;2.40;;;18.50;99.90;;;;;;5072866;28;20615;-80
2023/08/29 08:06:19;;;;;;;4.00;2.38;;;18.50;99.90;;;;;;5088762;28;20540;-77
2023/08/29 08:08:50;;;;;;;4.72;2.15;;;18.50;99.90;;;;;;5087087;28;20678;-77
2023/08/29 08:11:20;;;;;;;5.32;2.33;;;18.40;99.90;;;;;;5080149;28;20188;-78
2023/08/29 08:13:51;;;;;;;5.50;2.28;;;18.40;99.90;;;;;;5081928;28;20279;-77
2023/08/29 08:16:24;;;;;;;5.28;2.60;;;18.50;99.90;;;;;;5078362;28;20702;-78
2023/08/29 08:18:54;;;;;;;4.03;1.90;;;18.40;99.90;;;;;;5077508;28;20201;-77
2023/08/29 08:21:25;;;;;;;4.60;2.30;;;18.40;99.90;;;;;;5082241;28;20204;-77
2023/08/29 08:23:56;;;;;;;5.03;2.20;;;18.40;99.90;;;;;;5072755;28;20728;-77
2023/08/29 08:26:27;;;;;;;5.15;2.05;;;18.40;99.90;;;;;;5072887;28;20200;-76
2023/08/29 08:28:59;;;;;;;4.13;1.98;;;18.40;99.90;;;;;;5072667;28;20199;-77
2023/08/29 08:31:32;;;;;;;4.65;1.90;;;18.40;99.90;;;;;;5074930;28;20280;-77
2023/08/29 08:34:03;;;;;;;3.55;1.90;;;18.40;99.90;;;;;;5082067;28;20578;-78
2023/08/29 08:36:34;;;;;;;3.72;1.70;;;18.30;99.90;;;;;;5082875;28;20212;-76
2023/08/29 08:39:05;;;;;;;5.43;2.10;;;18.40;99.90;;;;;;5082222;28;20197;-78
2023/08/29 08:41:36;;;;;;;4.20;1.95;;;18.30;99.90;;;;;;5076411;28;20203;-77
2023/08/29 08:44:10;;;;;;;4.05;1.60;;;18.30;99.90;;;;;;5082811;28;20649;-76
2023/08/29 08:46:44;;;;;;;2.65;1.60;;;18.30;99.90;;;;;;5087937;28;20196;-76
2023/08/29 08:49:16;;;;;;;4.28;1.90;;;18.30;99.90;;;;;;5081523;28;20307;-76
2023/08/29 08:51:50;;;;;;;7.30;2.20;;;18.30;99.90;;;;;;5079100;28;20246;-79
2023/08/29 08:54:20;;;;;;;5.22;1.70;;;18.30;99.90;;;;;;5076369;28;20201;-79
2023/08/29 08:56:52;;;;;;;3.88;1.92;;;18.30;99.90;;;;;;5075959;28;20575;-77
2023/08/29 08:59:23;;;;;;;3.10;1.67;;;18.20;99.90;;;;;;5075914;28;20207;-76
2023/08/29 09:01:57;;;;;;;4.47;1.90;;;18.20;99.90;;;;;;5090154;28;20195;-77
2023/08/29 09:04:28;;;;;;;5.65;1.90;;;18.20;99.90;;;;;;5076263;28;20280;-76
2023/08/29 09:06:59;;;;;;;3.85;1.85;;;18.20;99.90;;;;;;5081216;28;20204;-76
2023/08/29 09:09:30;;;;;;;5.75;1.98;;;18.20;99.90;;;;;;5078024;28;20649;-78
2023/08/29 09:12:01;;;;;;;3.60;2.15;;;18.20;99.90;;;;;;5075788;28;20228;-78
2023/08/29 09:14:32;;;;;;;4.45;2.08;;;18.20;99.90;;;;;;5075729;28;20208;-77
2023/08/29 09:17:08;;;;;;;5.72;2.15;;;18.10;99.90;;;;;;5083373;28;20216;-78
2023/08/29 09:19:39;;;;;;;3.30;1.90;;;18.10;99.90;;;;;;5075921;28;20277;-79
2023/08/29 09:22:11;;;;;;;3.95;1.90;;;18.10;99.90;;;;;;5057971;28;20236;-76
2023/08/29 09:24:41;;;;;;;5.93;2.20;;;18.10;99.90;;;;;;5079013;28;20200;-77
2023/08/29 09:27:13;;;;;;;3.58;2.13;;;18.10;99.90;;;;;;5092970;28;20192;-77
2023/08/29 09:29:44;;;;;;;5.70;2.00;;;18.10;99.90;;;;;;5075422;28;20193;-77
2023/08/29 09:32:20;;;;;;;5.00;2.00;;;18.10;99.90;;;;;;5086428;28;20298;-77
2023/08/29 09:34:51;;;;;;;4.15;2.00;;;18.10;99.90;;;;;;5094183;28;20246;-78
2023/08/29 09:37:23;;;;;;;4.88;2.13;;;18.10;99.90;;;;;;5095244;28;20617;-77
2023/08/29 09:39:57;;;;;;;7.13;1.77;;;18.00;99.90;;;;;;5092873;28;20196;-78
2023/08/29 09:42:29;;;;;;;3.38;1.92;;;18.00;99.90;;;;;;5077574;28;20271;-77
2023/08/29 09:44:59;;;;;;;4.55;1.63;;;18.00;99.90;;;;;;5078375;28;20208;-79
2023/08/29 09:47:33;;;;;;;3.95;2.10;;;18.00;99.90;;;;;;5081887;28;20624;-78
2023/08/29 09:50:04;;;;;;;4.05;1.90;;;18.00;99.90;;;;;;5081768;28;20231;-77
2023/08/29 09:52:35;;;;;;;4.00;1.70;;;18.00;99.90;;;;;;5062646;28;20207;-79
2023/08/29 09:55:09;;;;;;;3.95;1.80;;;18.00;99.90;;;;;;5076755;28;20203;-78
2023/08/29 09:57:42;;;;;;;3.45;1.65;;;18.00;99.90;;;;;;5076151;28;20550;-78
2023/08/29 10:00:15;;;;;;;3.65;1.90;;;18.00;99.90;;;;;;5086393;28;20212;-78
2023/08/29 10:02:50;;;;;;;5.85;1.85;;;18.00;99.90;;;;;;5067148;28;20606;-79
2023/08/29 10:05:28;;;;;;;3.40;2.00;;;18.00;99.90;;;;;;5074940;28;20284;-78
2023/08/29 10:08:01;;;;;;;6.47;1.88;;;18.00;99.90;;;;;;5057597;28;20205;-79
2023/08/29 10:10:34;;;;;;;4.70;1.95;;;17.90;99.90;;;;;;5076030;28;20197;-78
2023/08/29 10:13:07;;;;;;;3.47;1.73;;;17.90;99.90;;;;;;5074665;28;20221;-77
2023/08/29 10:15:38;;;;;;;3.90;1.77;;;17.90;99.90;;;;;;5076656;28;20217;-78
2023/08/29 10:18:12;;;;;;;6.03;2.05;;;17.90;99.90;;;;;;5076717;28;20276;-78
2023/08/29 10:20:44;;;;;;;5.55;1.98;;;17.90;99.90;;;;;;5078754;28;20195;-78
2023/08/29 10:23:16;;;;;;;7.07;2.10;;;17.90;99.90;;;;;;5074489;28;20211;-77
2023/08/29 10:25:48;;;;;;;5.57;2.00;;;17.90;99.90;;;;;;5080278;28;20245;-78
2023/08/29 10:28:19;;;;;;;3.38;1.85;;;17.90;99.90;;;;;;5073998;28;20200;-79
2023/08/29 10:30:53;;;;;;;3.63;1.67;;;17.90;99.90;;;;;;5076726;28;20201;-78
2023/08/29 10:33:26;;;;;;;6.47;1.95;;;17.90;99.90;;;;;;5076901;28;20772;-78
2023/08/29 10:35:57;;;;;;;6.47;1.92;;;17.90;99.90;;;;;;5080109;28;20244;-78
2023/08/29 10:38:29;;;;;;;4.57;1.83;;;17.90;99.90;;;;;;5080627;28;20271;-79
2023/08/29 10:41:06;;;;;;;3.25;1.70;;;17.90;99.90;;;;;;5082458;28;20657;-76
2023/08/29 10:43:37;;;;;;;4.15;1.70;;;17.90;99.90;;;;;;5075263;28;20221;-78
2023/08/29 10:46:20;;;;;;;5.38;1.92;;;17.90;99.90;;;;;;5074365;28;20239;-78
2023/08/29 10:49:02;;;;;;;4.47;1.90;;;17.90;99.90;;;;;;5061776;28;20279;-79
2023/08/29 10:51:33;;;;;;;3.83;1.90;;;17.90;99.90;;;;;;5088636;28;20900;-79
2023/08/29 10:54:07;;;;;;;6.10;2.00;;;17.90;99.90;;;;;;5075936;28;20250;-79
2023/08/29 10:56:52;;;;;;;6.30;2.00;;;17.90;99.90;;;;;;5064567;28;20752;-79
2023/08/29 10:59:33;;;;;;;2.92;1.67;;;17.90;99.90;;;;;;5079787;28;20193;-77
2023/08/29 11:02:25;;;;;;;6.57;1.65;;;17.80;99.90;;;;;;5055680;28;20315;-79
2023/08/29 11:05:14;;;;;;;3.60;1.85;;;17.80;99.90;;;;;;5075691;28;20200;-79
2023/08/29 11:07:45;;;;;;;6.13;1.88;;;17.80;99.90;;;;;;5081589;28;20286;-77
2023/08/29 11:10:22;;;;;;;3.13;1.60;;;17.80;99.90;;;;;;5073305;28;20205;-76
2023/08/29 11:13:10;;;;;;;4.28;1.92;;;17.80;99.90;;;;;;5080896;28;20239;-78
2023/08/29 11:16:11;;;;;;;5.82;1.98;;;17.80;99.90;;;;;;5081413;28;20221;-77
2023/08/29 11:18:43;;;;;;;3.63;2.22;;;17.80;99.90;;;;;;5064852;28;20605;-78
2023/08/29 11:21:18;;;;;;;3.58;2.17;;;17.80;99.90;;;;;;5087168;28;20220;-77
2023/08/29 11:23:50;;;;;;;4.65;2.22;;;17.80;99.90;;;;;;5082692;28;20723;-76
2023/08/29 11:26:21;;;;;;;3.15;2.10;;;17.80;99.90;;;;;;5073451;28;20545;-78
2023/08/29 11:28:51;;;;;;;5.82;2.30;;;17.80;99.90;;;;;;5073442;28;20263;-77
2023/08/29 11:31:23;;;;;;;5.15;2.33;;;17.70;99.90;;;;;;5077454;28;20253;-77
2023/08/29 11:33:56;;;;;;;6.85;2.50;;;17.70;99.90;;;;;;5079390;28;20200;-77
2023/08/29 11:36:35;;;;;;;3.25;2.10;;;17.70;99.90;;;;;;5072012;28;20224;-78
2023/08/29 11:39:08;;;;;;;4.18;2.20;;;17.70;99.90;;;;;;5080260;28;20201;-78
2023/08/29 11:41:39;;;;;;;4.65;2.17;;;17.70;99.90;;;;;;5073552;28;20201;-78
2023/08/29 11:44:09;;;;;;;5.20;2.25;;;17.60;99.90;;;;;;5073233;28;20276;-79
2023/08/29 11:46:41;;;;;;;4.68;2.28;;;17.60;99.90;;;;;;5073014;28;20276;-78
2023/08/29 11:49:19;;;;;;;4.97;2.70;;;17.50;99.90;;;;;;5086802;28;20231;-78
2023/08/29 11:51:54;;;;;;;4.05;2.40;;;17.50;99.90;;;;;;5087850;28;20285;-79
2023/08/29 11:54:47;;;;;;;4.85;2.50;;;17.40;99.90;;;;;;5081688;28;20250;-79
2023/08/29 11:57:19;;;;;;;4.72;2.10;;;17.40;99.90;;;;;;5089485;28;20261;-78
2023/08/29 11:59:52;;;;;;;3.85;2.50;;;17.40;99.90;;;;;;5092182;28;20279;-78
2023/08/29 12:02:24;;;;;;;4.47;2.40;;;17.30;99.90;;;;;;5093478;28;20246;-78
2023/08/29 12:04:57;;;;;;;4.25;2.40;;;17.30;99.90;;;;;;5092526;28;20554;-77
2023/08/29 12:07:35;;;;;;;5.15;2.50;;;17.30;99.90;;;;;;5090319;28;20279;-77
2023/08/29 12:10:13;;;;;;;5.78;2.85;;;17.20;99.90;;;;;;5078761;28;20191;-77
2023/08/29 12:12:46;;;;;;;5.60;2.72;;;17.20;99.90;;;;;;5084282;28;20224;-77
2023/08/29 12:15:17;;;;;;;5.15;2.72;;;17.20;99.90;;;;;;5092573;28;20188;-77
2023/08/29 12:17:51;;;;;;;6.70;3.03;;;17.10;99.90;;;;;;5092449;28;20680;-78
2023/08/29 12:20:35;;;;;;;6.90;3.70;;;17.10;99.90;;;;;;5093260;28;20252;-76
2023/08/29 12:23:08;;;;;;;8.93;4.85;;;17.00;99.90;;;;;;5075500;28;20581;-76
2023/08/29 12:25:39;;;;;;;9.00;5.03;;;17.00;99.90;;;;;;5073156;28;20207;-76
2023/08/29 12:28:12;;;;;;;13.65;7.35;;;16.90;99.90;;;;;;5079550;28;20202;-78
2023/08/29 12:30:43;;;;;;;11.90;6.63;;;16.90;99.90;;;;;;5092747;28;20192;-78
2023/08/29 12:33:14;;;;;;;7.40;4.50;;;16.80;99.90;;;;;;5093340;28;20256;-76
2023/08/29 12:35:44;;;;;;;8.13;3.22;;;16.80;99.90;;;;;;5092941;28;20228;-76
2023/08/29 12:38:17;;;;;;;5.72;3.05;;;16.80;99.90;;;;;;5092452;28;20184;-76
2023/08/29 12:40:48;;;;;;;6.90;3.38;;;16.70;99.90;;;;;;5092988;28;20656;-77
2023/08/29 12:43:19;;;;;;;5.07;3.25;;;16.70;99.90;;;;;;5073345;28;20645;-77
2023/08/29 12:45:53;;;;;;;6.40;3.42;;;16.70;99.90;;;;;;5082301;28;20199;-76
2023/08/29 12:48:23;;;;;;;4.90;3.17;;;16.70;99.90;;;;;;5082518;28;20201;-77
2023/08/29 12:50:54;;;;;;;6.57;3.50;;;16.60;99.90;;;;;;5072778;28;20277;-77
2023/08/29 12:53:28;;;;;;;7.82;3.75;;;16.60;99.90;;;;;;5072204;28;20204;-76
2023/08/29 12:55:59;;;;;;;6.95;3.40;;;16.60;99.90;;;;;;5072394;28;20641;-79
2023/08/29 12:58:30;;;;;;;5.53;3.40;;;16.50;99.90;;;;;;5072655;28;20193;-77
2023/08/29 13:01:03;;;;;;;7.18;3.60;;;16.50;99.90;;;;;;5073901;28;20193;-77
2023/08/29 13:03:34;;;;;;;6.90;3.70;;;16.40;99.90;;;;;;5084948;28;20335;-76
2023/08/29 13:06:06;;;;;;;7.25;3.70;;;16.40;99.90;;;;;;5072152;28;20596;-77
2023/08/29 13:08:41;;;;;;;7.05;3.75;;;16.30;99.90;;;;;;5088202;28;20196;-76
2023/08/29 13:11:12;;;;;;;5.80;3.50;;;16.30;99.90;;;;;;5092444;28;20235;-77
2023/08/29 13:13:43;;;;;;;7.68;3.72;;;16.30;99.90;;;;;;5091532;28;20283;-76